createdAt,value
2023-03-24T00:01:54.664Z,9.48
2023-03-24T00:06:58.345Z,6.75
2023-03-24T00:12:03.687Z,5.28
2023-03-24T00:17:08.086Z,7.27
2023-03-24T00:22:12.461Z,7.90
2023-03-24T00:27:17.870Z,7.63
2023-03-24T00:32:21.581Z,6.97
2023-03-24T00:37:25.316Z,10.45
2023-03-24T00:42:33.313Z,6.35
2023-03-24T00:47:37.110Z,6.22
2023-03-24T00:52:40.809Z,10.07
2023-03-24T00:57:47.198Z,7.05
2023-03-24T01:02:52.378Z,5.22
2023-03-24T01:07:58.836Z,5.63
2023-03-24T01:13:04.664Z,8.18
2023-03-24T01:18:08.407Z,7.70
2023-03-24T01:23:13.437Z,4.18
2023-03-24T01:28:21.919Z,6.07
2023-03-24T01:33:25.592Z,7.85
2023-03-24T01:38:29.294Z,4.93
2023-03-24T01:43:36.242Z,5.22
2023-03-24T01:48:44.220Z,6.03
2023-03-24T01:53:52.775Z,7.38
2023-03-24T01:59:01.985Z,5.70
2023-03-24T02:04:09.028Z,6.13
2023-03-24T02:09:14.280Z,5.20
2023-03-24T02:14:19.764Z,5.27
2023-03-24T02:19:48.526Z,6.40
2023-03-24T02:25:21.504Z,7.75
2023-03-24T02:30:52.072Z,8.30
2023-03-24T02:36:17.846Z,4.90
2023-03-24T02:41:29.439Z,7.53
2023-03-24T02:46:39.074Z,6.25
2023-03-24T02:51:53.131Z,5.50
2023-03-24T02:57:05.130Z,7.70
2023-03-24T03:02:10.823Z,5.90
2023-03-24T03:07:14.810Z,7.60
2023-03-24T03:12:23.390Z,7.05
2023-03-24T03:17:31.757Z,7.53
2023-03-24T03:22:41.511Z,6.80
2023-03-24T03:27:48.279Z,5.97
2023-03-24T03:32:56.580Z,7.57
2023-03-24T03:38:08.830Z,10.80
2023-03-24T03:43:14.221Z,7.22
2023-03-24T03:48:18.818Z,9.80
2023-03-24T03:53:26.355Z,8.75
2023-03-24T03:58:31.701Z,8.20
2023-03-24T04:03:53.583Z,11.60
2023-03-24T04:09:04.821Z,9.20
2023-03-24T04:14:28.581Z,8.23
2023-03-24T04:19:46.665Z,12.15
2023-03-24T04:24:55.750Z,10.07
2023-03-24T04:30:13.238Z,13.73
2023-03-24T04:35:25.572Z,11.13
2023-03-24T04:40:32.095Z,12.82
2023-03-24T04:45:37.999Z,10.95
2023-03-24T04:50:43.490Z,12.48
2023-03-24T04:56:07.338Z,11.80
2023-03-24T05:01:12.677Z,14.90
2023-03-24T05:06:16.499Z,13.50
2023-03-24T05:11:20.453Z,14.20
2023-03-24T05:16:25.922Z,17.98
2023-03-24T05:21:30.270Z,13.20
2023-03-24T05:26:34.929Z,10.90
2023-03-24T05:31:40.280Z,11.05
2023-03-24T05:36:43.954Z,10.97
2023-03-24T05:41:47.612Z,16.75
2023-03-24T05:46:53.617Z,16.45
2023-03-24T05:51:57.261Z,11.07
2023-03-24T05:57:01.031Z,12.48
2023-03-24T06:02:06.573Z,12.48
2023-03-24T06:07:10.270Z,13.40
2023-03-24T06:12:14.625Z,14.95
2023-03-24T06:17:19.929Z,16.55
2023-03-24T06:22:23.551Z,17.92
2023-03-24T06:27:27.766Z,15.45
2023-03-24T06:32:33.149Z,12.95
2023-03-24T06:37:36.966Z,13.63
2023-03-24T06:42:40.672Z,10.98
2023-03-24T06:47:46.002Z,14.82
2023-03-24T06:52:49.677Z,14.00
2023-03-24T06:57:53.516Z,14.68
2023-03-24T07:02:58.935Z,10.57
2023-03-24T07:13:09.328Z,16.50
2023-03-24T07:18:14.734Z,18.67
2023-03-24T07:23:18.412Z,13.30
2023-03-24T07:28:22.111Z,16.80
2023-03-24T07:33:27.697Z,14.48
2023-03-24T07:38:31.561Z,15.77
2023-03-24T07:43:35.253Z,16.92
2023-03-24T07:48:40.585Z,15.10
2023-03-24T07:53:44.255Z,16.55
2023-03-24T07:58:48.075Z,13.38
2023-03-24T08:03:53.715Z,14.20
2023-03-24T08:08:57.525Z,14.05
2023-03-24T08:14:01.148Z,13.93
2023-03-24T08:19:06.601Z,13.15
2023-03-24T08:24:10.360Z,10.20
2023-03-24T08:29:14.286Z,11.57
2023-03-24T08:34:19.642Z,12.77
2023-03-24T08:39:23.462Z,9.43
2023-03-24T08:44:27.995Z,13.63
2023-03-24T08:49:33.369Z,13.98
2023-03-24T08:54:37.502Z,9.52
2023-03-24T08:59:41.268Z,11.00
2023-03-24T09:04:46.647Z,10.77
2023-03-24T09:09:50.504Z,14.32
2023-03-24T09:14:54.194Z,9.98
2023-03-24T09:20:01.497Z,8.48
2023-03-24T09:25:06.653Z,8.63
2023-03-24T09:30:11.865Z,8.10
2023-03-24T09:35:17.381Z,9.45
2023-03-24T09:40:24.571Z,10.07
2023-03-24T09:45:30.936Z,9.38
2023-03-24T09:50:40.964Z,12.20
2023-03-24T09:55:46.075Z,16.92
2023-03-24T10:00:50.091Z,10.18
2023-03-24T10:06:01.323Z,7.95
2023-03-24T10:11:08.650Z,13.65
2023-03-24T10:16:18.725Z,7.82
2023-03-24T10:21:26.868Z,11.98
2023-03-24T10:26:40.745Z,13.70
2023-03-24T10:31:48.246Z,11.30
2023-03-24T10:36:55.726Z,10.63
2023-03-24T10:42:01.708Z,13.13
2023-03-24T10:47:06.584Z,8.67
2023-03-24T10:52:12.357Z,9.95
2023-03-24T10:57:19.549Z,6.70
2023-03-24T11:02:26.119Z,8.27
2023-03-24T11:07:35.989Z,13.57
2023-03-24T11:12:41.286Z,9.30
2023-03-24T11:17:45.307Z,10.35
2023-03-24T11:23:02.791Z,7.78
2023-03-24T11:28:09.098Z,10.73
2023-03-24T11:33:18.935Z,7.55
2023-03-24T11:38:31.858Z,9.25
2023-03-24T11:43:35.565Z,9.85
2023-03-24T11:48:45.775Z,12.27
2023-03-24T11:53:53.231Z,6.82
2023-03-24T11:59:04.625Z,11.75
2023-03-24T12:04:22.816Z,10.35
2023-03-24T12:09:35.510Z,10.27
2023-03-24T12:14:52.624Z,5.97
2023-03-24T12:20:17.053Z,7.75
2023-03-24T12:25:35.186Z,9.65
2023-03-24T12:30:49.885Z,8.98
2023-03-24T12:36:13.201Z,11.70
2023-03-24T12:41:49.524Z,6.72
2023-03-24T12:47:05.227Z,9.33
2023-03-24T12:52:23.214Z,7.95
2023-03-24T12:57:32.900Z,10.48
2023-03-24T13:02:42.698Z,9.23
2023-03-24T13:07:46.875Z,9.65
2023-03-24T13:12:55.571Z,11.02
2023-03-24T13:18:13.593Z,7.38
2023-03-24T13:23:44.485Z,10.90
2023-03-24T13:28:57.206Z,12.80
2023-03-24T13:34:04.129Z,9.38
2023-03-24T13:39:13.613Z,11.77
2023-03-24T13:44:21.159Z,7.95
2023-03-24T13:49:26.781Z,9.35
2023-03-24T13:54:31.574Z,6.57
2023-03-24T13:59:41.643Z,9.65
2023-03-24T14:04:48.723Z,7.90
2023-03-24T14:10:00.614Z,7.80
2023-03-24T14:15:19.227Z,9.50
2023-03-24T14:20:33.326Z,9.00
2023-03-24T14:25:37.290Z,10.02
2023-03-24T14:31:00.800Z,9.27
2023-03-24T14:36:08.262Z,12.23
2023-03-24T14:41:16.253Z,8.52
2023-03-24T14:46:39.529Z,9.15
2023-03-24T14:51:49.288Z,7.57
2023-03-24T14:56:55.264Z,4.43
2023-03-24T15:02:06.517Z,7.57
2023-03-24T15:07:14.133Z,9.05
2023-03-24T15:12:17.888Z,7.22
2023-03-24T15:17:24.667Z,6.45
2023-03-24T15:22:40.798Z,6.75
2023-03-24T15:27:50.380Z,8.55
2023-03-24T15:32:54.225Z,5.82
2023-03-24T15:37:59.505Z,5.72
2023-03-24T15:43:07.793Z,4.72
2023-03-24T15:48:17.385Z,8.32
2023-03-24T15:53:27.508Z,5.63
2023-03-24T15:58:31.593Z,5.25
2023-03-24T16:03:36.369Z,5.03
2023-03-24T16:08:43.879Z,5.00
2023-03-24T16:13:47.628Z,5.15
2023-03-24T16:18:52.078Z,6.63
2023-03-24T16:23:58.495Z,4.40
2023-03-24T16:29:14.826Z,5.20
2023-03-24T16:39:25.176Z,6.15
2023-03-24T16:44:28.953Z,4.63
2023-03-24T16:49:32.608Z,5.90
2023-03-24T16:54:37.898Z,4.90
2023-03-24T16:59:41.509Z,4.77
2023-03-24T17:04:45.166Z,4.68
2023-03-24T17:09:50.463Z,3.58
2023-03-24T17:14:54.116Z,5.13
2023-03-24T17:19:57.736Z,5.57
2023-03-24T17:25:03.010Z,4.80
2023-03-24T17:30:08.273Z,4.83
2023-03-24T17:35:13.049Z,4.87
2023-03-24T17:40:20.369Z,3.35
2023-03-24T17:45:24.032Z,3.95
2023-03-24T17:50:27.714Z,4.03
2023-03-24T17:55:32.991Z,5.03
2023-03-24T18:00:36.781Z,4.63
2023-03-24T18:05:40.568Z,5.07
2023-03-24T18:10:46.920Z,2.92
2023-03-24T18:15:50.606Z,2.30
2023-03-24T18:20:54.278Z,2.35
2023-03-24T18:26:04.350Z,4.35
2023-03-24T18:31:10.666Z,5.45
2023-03-24T18:36:14.973Z,5.13
2023-03-24T18:41:21.225Z,2.67
2023-03-24T18:46:26.643Z,3.25
2023-03-24T18:51:30.881Z,1.55
2023-03-24T18:56:36.252Z,2.92
2023-03-24T19:01:40.081Z,4.10
2023-03-24T19:06:44.011Z,3.85
2023-03-24T19:11:49.532Z,3.40
2023-03-24T19:16:53.243Z,5.75
2023-03-24T19:21:56.917Z,5.10
2023-03-24T19:27:02.235Z,4.78
2023-03-24T19:32:06.100Z,4.95
2023-03-24T19:37:09.786Z,3.75
2023-03-24T19:42:15.340Z,7.03
2023-03-24T19:47:18.992Z,7.10
2023-03-24T19:52:22.620Z,4.10
2023-03-24T19:57:27.928Z,5.80
2023-03-24T20:02:31.741Z,3.13
2023-03-24T20:07:35.512Z,6.57
2023-03-24T20:12:40.786Z,6.53
2023-03-24T20:17:44.688Z,3.00
2023-03-24T20:22:48.325Z,3.75
2023-03-24T20:27:53.692Z,3.75
2023-03-24T20:32:58.350Z,3.25
2023-03-24T20:38:02.178Z,5.70
2023-03-24T20:43:07.474Z,5.65
2023-03-24T20:48:11.099Z,5.32
2023-03-24T20:53:14.768Z,6.75
2023-03-24T20:58:23.188Z,4.60
2023-03-24T21:03:27.234Z,5.30
2023-03-24T21:08:31.000Z,11.77
2023-03-24T21:13:37.996Z,6.90
2023-03-24T21:18:41.908Z,4.75
2023-03-24T21:23:45.628Z,5.07
2023-03-24T21:28:51.875Z,4.63
2023-03-24T21:33:56.680Z,7.40
2023-03-24T21:39:00.335Z,4.83
2023-03-24T21:44:07.179Z,7.35
2023-03-24T21:49:10.792Z,9.98
2023-03-24T21:54:14.429Z,7.80
2023-03-24T21:59:19.764Z,7.10
2023-03-24T22:04:23.451Z,7.65
2023-03-24T22:09:27.132Z,5.28
2023-03-24T22:14:32.665Z,5.20
2023-03-24T22:19:36.303Z,5.55
2023-03-24T22:24:40.112Z,5.22
2023-03-24T22:29:45.369Z,6.65
2023-03-24T22:34:48.987Z,6.18
2023-03-24T22:39:52.628Z,6.82
2023-03-24T22:44:57.927Z,5.03
2023-03-24T22:50:01.608Z,4.82
2023-03-24T22:55:05.564Z,5.78
2023-03-24T23:00:11.939Z,6.85
2023-03-24T23:05:15.934Z,8.75
2023-03-24T23:10:19.989Z,22.35
2023-03-24T23:15:26.204Z,5.07
2023-03-24T23:20:29.942Z,20.55
2023-03-24T23:25:34.205Z,11.30
2023-03-24T23:30:40.045Z,7.47
2023-03-24T23:40:46.763Z,7.28
